Time;durP1;ratioP1;P1;durP2;ratioP2;P2;SDS_P1;SDS_P2;PMS_P1;PMS_P2;Temp;Humidity;BMP_temperature;BMP_pressure;BME280_temperature;BME280_humidity;BME280_pressure;Samples;Min_cycle;Max_cycle;Signal;HPM_P1;HPM_P2
2021/12/12 00:00:44;;;;;;;14.53;12.97;;;-0.10;99.90;;;;;;5009339;28;20440;-55
2021/12/12 00:03:20;;;;;;;13.47;12.07;;;-0.20;99.90;;;;;;5014263;28;20462;-55
2021/12/12 00:05:52;;;;;;;17.07;12.83;;;-0.20;99.90;;;;;;5018244;28;20445;-55
2021/12/12 00:08:21;;;;;;;14.30;12.07;;;-0.30;99.90;;;;;;5014487;28;20485;-55
2021/12/12 00:11:01;;;;;;;15.90;13.00;;;-0.20;99.90;;;;;;5009869;28;20537;-54
2021/12/12 00:13:31;;;;;;;17.67;12.93;;;-0.10;99.90;;;;;;5009610;28;20578;-54
2021/12/12 00:16:00;;;;;;;15.03;11.77;;;0.10;99.90;;;;;;5003872;28;20487;-55
2021/12/12 00:18:27;;;;;;;13.30;11.30;;;0.10;99.90;;;;;;5007517;28;20486;-54
2021/12/12 00:20:54;;;;;;;13.10;10.70;;;0.20;99.90;;;;;;5009979;28;20543;-54
2021/12/12 00:23:22;;;;;;;13.30;11.20;;;0.30;99.90;;;;;;5010419;28;20544;-53
2021/12/12 00:25:52;;;;;;;12.07;10.30;;;0.30;99.90;;;;;;5011294;28;20473;-54
2021/12/12 00:28:21;;;;;;;10.83;9.50;;;0.40;99.90;;;;;;5004856;28;20536;-54
2021/12/12 00:30:50;;;;;;;13.67;10.37;;;0.40;99.90;;;;;;5004233;28;20814;-54
2021/12/12 00:33:19;;;;;;;9.43;8.37;;;0.30;99.90;;;;;;5009019;28;20545;-55
2021/12/12 00:35:46;;;;;;;11.70;8.90;;;0.20;99.90;;;;;;5009317;28;20483;-54
2021/12/12 00:38:17;;;;;;;10.83;9.70;;;0.20;99.90;;;;;;5009881;28;20446;-54
2021/12/12 00:40:48;;;;;;;10.70;9.60;;;0.30;99.90;;;;;;5012712;28;20970;-55
2021/12/12 00:43:22;;;;;;;13.20;9.63;;;0.30;99.90;;;;;;5011114;28;20876;-55
2021/12/12 00:45:50;;;;;;;13.03;11.67;;;0.00;99.90;;;;;;5007934;28;20985;-55
2021/12/12 00:48:18;;;;;;;13.10;9.57;;;0.10;99.90;;;;;;5008062;28;20533;-54
2021/12/12 00:50:46;;;;;;;11.00;9.43;;;0.10;99.90;;;;;;5018687;28;21800;-54
2021/12/12 00:53:14;;;;;;;13.30;10.97;;;0.20;99.90;;;;;;5018322;28;20584;-54
2021/12/12 00:55:43;;;;;;;17.83;12.47;;;0.30;99.90;;;;;;5012327;28;20598;-54
2021/12/12 00:58:13;;;;;;;15.90;11.13;;;0.30;99.90;;;;;;5014436;28;20495;-55
2021/12/12 01:00:48;;;;;;;14.97;11.10;;;0.40;99.90;;;;;;5013493;28;20531;-54
2021/12/12 01:03:16;;;;;;;13.47;11.67;;;0.40;99.90;;;;;;5011242;28;21005;-54
2021/12/12 01:05:47;;;;;;;10.90;9.70;;;0.40;99.90;;;;;;5013846;28;20537;-54
2021/12/12 01:08:15;;;;;;;12.20;10.20;;;0.40;99.90;;;;;;5016040;28;20809;-54
2021/12/12 01:10:45;;;;;;;14.93;11.23;;;0.50;99.90;;;;;;5013764;28;20763;-55
2021/12/12 01:13:12;;;;;;;12.73;10.20;;;0.50;99.90;;;;;;5015756;28;20941;-54
2021/12/12 01:15:42;;;;;;;14.00;12.60;;;0.50;99.90;;;;;;5010026;28;20548;-55
2021/12/12 01:18:13;;;;;;;16.50;12.37;;;0.50;99.90;;;;;;5012541;28;20454;-54
2021/12/12 01:20:50;;;;;;;15.47;11.97;;;0.50;99.90;;;;;;5014648;28;20496;-54
2021/12/12 01:23:23;;;;;;;12.67;11.33;;;0.40;99.90;;;;;;5008379;28;21172;-55
2021/12/12 01:25:53;;;;;;;13.67;11.57;;;0.40;99.90;;;;;;5011607;28;20484;-54
2021/12/12 01:28:23;;;;;;;10.93;9.40;;;0.50;99.90;;;;;;5008694;28;20451;-55
2021/12/12 01:30:52;;;;;;;10.67;8.73;;;0.50;99.90;;;;;;5008248;28;20575;-54
2021/12/12 01:33:32;;;;;;;16.03;10.43;;;0.50;99.90;;;;;;5009804;28;20494;-55
2021/12/12 01:35:59;;;;;;;13.30;9.43;;;0.50;99.90;;;;;;5009987;28;20692;-54
2021/12/12 01:41:13;;;;;;;12.67;10.17;;;0.50;99.90;;;;;;5004560;28;20449;-54
2021/12/12 01:43:44;;;;;;;12.57;10.53;;;0.50;99.90;;;;;;5004855;28;20562;-57
2021/12/12 01:46:18;;;;;;;15.93;11.30;;;0.50;99.90;;;;;;5011563;28;20996;-54
2021/12/12 01:48:50;;;;;;;16.40;11.20;;;0.50;99.90;;;;;;5009936;28;20948;-54
2021/12/12 01:51:18;;;;;;;13.77;10.60;;;0.50;99.90;;;;;;5010151;28;21208;-54
2021/12/12 01:53:51;;;;;;;15.07;12.20;;;0.50;99.90;;;;;;5006804;28;21079;-54
2021/12/12 01:56:20;;;;;;;20.53;14.13;;;0.50;99.90;;;;;;5008866;28;20788;-54
2021/12/12 01:58:52;;;;;;;20.50;14.27;;;0.60;99.90;;;;;;5009129;28;20538;-54
2021/12/12 02:01:22;;;;;;;12.90;10.57;;;0.60;99.90;;;;;;5008678;28;20562;-54
2021/12/12 02:03:55;;;;;;;11.40;9.30;;;0.60;99.90;;;;;;5010289;28;20626;-54
2021/12/12 02:06:24;;;;;;;10.97;8.80;;;0.50;99.90;;;;;;5008404;28;21055;-54
2021/12/12 02:08:54;;;;;;;8.90;7.90;;;0.50;99.90;;;;;;5008245;28;20859;-55
2021/12/12 02:11:24;;;;;;;8.03;6.97;;;0.60;99.90;;;;;;5013637;28;20719;-54
2021/12/12 02:14:08;;;;;;;8.47;7.60;;;0.60;99.90;;;;;;5010632;28;20603;-54
2021/12/12 02:16:37;;;;;;;12.63;9.30;;;0.60;99.90;;;;;;5008111;28;20455;-54
2021/12/12 02:19:05;;;;;;;10.33;9.07;;;0.50;99.90;;;;;;5008122;28;20569;-54
2021/12/12 02:21:40;;;;;;;12.23;9.87;;;0.50;99.90;;;;;;5008809;28;20451;-54
2021/12/12 02:35:21;;;;;;;9.93;8.33;;;0.40;99.90;;;;;;5011726;28;21035;-54
2021/12/12 02:37:49;;;;;;;11.63;9.20;;;0.50;99.90;;;;;;5017260;28;20476;-54
2021/12/12 02:40:23;;;;;;;12.17;8.87;;;0.50;99.90;;;;;;5015727;28;20473;-54
2021/12/12 02:42:50;;;;;;;15.43;11.50;;;0.50;99.90;;;;;;5012660;28;20540;-55
2021/12/12 02:45:19;;;;;;;13.57;9.90;;;0.50;99.90;;;;;;5014149;28;20474;-53
2021/12/12 02:47:54;;;;;;;11.03;9.33;;;0.60;99.90;;;;;;5012563;28;20477;-54
2021/12/12 02:50:25;;;;;;;10.60;8.13;;;0.50;99.90;;;;;;5018022;28;20836;-54
2021/12/12 02:52:55;;;;;;;8.53;7.60;;;0.50;99.90;;;;;;5018387;28;20613;-54
2021/12/12 02:55:27;;;;;;;9.90;8.43;;;0.60;99.90;;;;;;5011643;28;20474;-55
2021/12/12 02:57:56;;;;;;;11.83;10.27;;;0.60;99.90;;;;;;5011881;28;20482;-54
2021/12/12 03:00:27;;;;;;;12.60;11.33;;;0.40;99.90;;;;;;5012656;28;20547;-54
2021/12/12 03:02:58;;;;;;;15.90;11.43;;;0.40;99.90;;;;;;5010544;28;20502;-54
2021/12/12 03:05:27;;;;;;;10.57;8.40;;;0.40;99.90;;;;;;5010729;28;20512;-54
2021/12/12 03:07:55;;;;;;;10.53;8.70;;;0.40;99.90;;;;;;5009585;28;20526;-54
2021/12/12 03:10:28;;;;;;;12.27;10.00;;;0.50;99.90;;;;;;5011603;28;20470;-54
2021/12/12 03:12:56;;;;;;;14.83;11.60;;;0.50;99.90;;;;;;5011736;28;20567;-54
2021/12/12 03:15:26;;;;;;;13.20;10.73;;;0.50;99.90;;;;;;5011437;28;20533;-53
2021/12/12 03:17:55;;;;;;;14.80;12.10;;;0.50;99.90;;;;;;5010539;28;20794;-55
2021/12/12 03:20:26;;;;;;;11.43;10.20;;;0.50;99.90;;;;;;5016031;28;20528;-54
2021/12/12 03:22:56;;;;;;;13.00;10.33;;;0.50;99.90;;;;;;5011103;28;20577;-55
2021/12/12 03:25:24;;;;;;;14.63;10.03;;;0.30;99.90;;;;;;5013269;28;20548;-54
2021/12/12 03:27:53;;;;;;;14.70;10.43;;;-0.10;99.90;;;;;;5002983;28;20540;-54
2021/12/12 03:30:20;;;;;;;12.00;10.03;;;-0.10;99.90;;;;;;5009034;28;20552;-54
2021/12/12 03:32:47;;;;;;;10.80;9.70;;;0.00;99.90;;;;;;5013330;28;21025;-54
2021/12/12 03:35:14;;;;;;;12.07;10.20;;;0.10;99.90;;;;;;5010599;28;21000;-55
2021/12/12 03:37:42;;;;;;;18.10;11.60;;;0.00;99.90;;;;;;5011027;28;20896;-54
2021/12/12 03:40:14;;;;;;;12.87;10.73;;;-0.20;99.90;;;;;;5012179;28;20472;-54
2021/12/12 03:42:45;;;;;;;12.90;10.60;;;-0.10;99.90;;;;;;5011296;28;20472;-54
2021/12/12 03:45:13;;;;;;;13.70;10.20;;;0.10;99.90;;;;;;5012185;28;20489;-54
2021/12/12 03:47:44;;;;;;;11.07;8.93;;;0.20;99.90;;;;;;5016497;28;20531;-54
2021/12/12 03:50:15;;;;;;;10.00;8.93;;;0.30;99.90;;;;;;5009593;28;20531;-54
2021/12/12 03:52:42;;;;;;;13.17;10.57;;;0.40;99.90;;;;;;5010658;28;20499;-54
2021/12/12 03:55:11;;;;;;;11.47;10.27;;;0.40;99.90;;;;;;5018887;28;20527;-54
2021/12/12 03:57:39;;;;;;;9.60;8.60;;;0.00;99.90;;;;;;5014170;28;20541;-55
2021/12/12 04:00:15;;;;;;;17.90;13.77;;;-0.30;99.90;;;;;;5010240;28;20523;-54
2021/12/12 04:02:42;;;;;;;15.60;11.50;;;-0.20;99.90;;;;;;5015677;28;20539;-55
2021/12/12 04:05:09;;;;;;;12.03;10.37;;;-0.10;99.90;;;;;;5013117;28;20478;-54
2021/12/12 04:07:36;;;;;;;12.60;11.23;;;-0.10;99.90;;;;;;5011420;28;20528;-54
2021/12/12 04:10:05;;;;;;;12.60;9.40;;;0.00;99.90;;;;;;5009818;28;20472;-55
2021/12/12 04:12:32;;;;;;;10.10;7.67;;;0.10;99.90;;;;;;5009834;28;20494;-54
2021/12/12 04:14:59;;;;;;;10.90;7.43;;;0.20;99.90;;;;;;5010500;28;21051;-55
2021/12/12 04:17:31;;;;;;;11.57;10.33;;;0.20;99.90;;;;;;5010347;28;20539;-56
2021/12/12 04:20:00;;;;;;;9.97;8.60;;;0.20;99.90;;;;;;5009781;28;20539;-55
2021/12/12 04:22:27;;;;;;;12.70;10.03;;;0.30;99.90;;;;;;5008840;28;20505;-54
2021/12/12 04:24:56;;;;;;;14.50;10.87;;;0.40;99.90;;;;;;5009973;28;20473;-55
2021/12/12 04:27:24;;;;;;;10.83;9.73;;;0.40;99.90;;;;;;5010747;28;20540;-55
2021/12/12 04:29:54;;;;;;;13.33;11.30;;;0.20;99.90;;;;;;5012870;28;20535;-54
2021/12/12 04:32:23;;;;;;;13.53;11.53;;;0.10;99.90;;;;;;5010886;28;20502;-53
2021/12/12 04:34:54;;;;;;;13.13;10.93;;;-0.10;99.90;;;;;;5011374;28;20857;-54
2021/12/12 04:37:23;;;;;;;13.53;11.50;;;-0.10;99.90;;;;;;5012146;28;20537;-54
2021/12/12 04:39:53;;;;;;;16.93;13.60;;;0.00;99.90;;;;;;5010904;28;20888;-55
2021/12/12 04:42:24;;;;;;;19.50;13.80;;;0.00;99.90;;;;;;5009927;28;20563;-54
2021/12/12 04:44:54;;;;;;;18.13;14.50;;;-0.30;99.90;;;;;;5012973;28;20432;-55
2021/12/12 04:50:21;;;;;;;25.30;14.30;;;-0.10;99.90;;;;;;5012280;28;20519;-54
2021/12/12 04:52:54;;;;;;;15.93;11.53;;;0.10;99.90;;;;;;5011459;28;20548;-54
2021/12/12 04:55:28;;;;;;;17.10;12.10;;;0.10;99.90;;;;;;5010078;28;20928;-55
2021/12/12 04:58:02;;;;;;;12.97;11.30;;;0.10;99.90;;;;;;5010810;28;20529;-54
2021/12/12 05:00:35;;;;;;;14.87;9.83;;;0.10;99.90;;;;;;5010109;28;20482;-54
2021/12/12 05:03:12;;;;;;;11.60;10.47;;;0.10;99.90;;;;;;5011135;28;20464;-54
2021/12/12 05:05:48;;;;;;;15.80;12.50;;;0.20;99.90;;;;;;5012344;28;20459;-53
2021/12/12 05:08:19;;;;;;;13.47;11.17;;;0.20;99.90;;;;;;5009772;28;20447;-55
2021/12/12 05:10:54;;;;;;;13.77;11.07;;;0.30;99.90;;;;;;5009162;28;20534;-54
2021/12/12 05:13:25;;;;;;;13.63;9.70;;;0.30;99.90;;;;;;5014712;28;20500;-54
2021/12/12 05:15:58;;;;;;;11.20;9.70;;;0.30;99.90;;;;;;5010027;28;20443;-55
2021/12/12 05:18:30;;;;;;;9.10;7.13;;;0.40;99.90;;;;;;5009876;28;20473;-54
2021/12/12 05:21:02;;;;;;;9.40;8.20;;;0.40;99.90;;;;;;5014726;28;20548;-54
2021/12/12 05:23:32;;;;;;;11.97;10.23;;;0.50;99.90;;;;;;5015749;28;20467;-55
2021/12/12 05:26:01;;;;;;;12.20;10.90;;;0.50;99.90;;;;;;5008156;28;20519;-55
2021/12/12 05:28:32;;;;;;;10.97;9.67;;;0.50;99.90;;;;;;5015603;28;20528;-54
2021/12/12 05:31:01;;;;;;;11.40;9.33;;;0.50;99.90;;;;;;5014061;28;20521;-55
2021/12/12 05:33:30;;;;;;;10.27;8.93;;;0.50;99.90;;;;;;5012922;28;20466;-54
2021/12/12 05:35:58;;;;;;;9.57;8.30;;;0.50;99.90;;;;;;5012596;28;20886;-54
2021/12/12 05:38:27;;;;;;;9.83;8.60;;;0.50;99.90;;;;;;5012652;28;20898;-54
2021/12/12 05:40:54;;;;;;;8.97;7.80;;;0.30;99.90;;;;;;5005015;28;20476;-55
2021/12/12 05:43:22;;;;;;;9.33;6.80;;;0.20;99.90;;;;;;5024186;28;21048;-54
2021/12/12 05:45:51;;;;;;;8.23;6.57;;;0.20;99.90;;;;;;5021269;28;20471;-54
2021/12/12 05:48:18;;;;;;;8.47;7.63;;;0.30;99.90;;;;;;5015215;28;20537;-54
2021/12/12 05:50:45;;;;;;;5.97;5.00;;;0.30;99.90;;;;;;5013392;28;20552;-53
2021/12/12 05:53:15;;;;;;;5.30;4.03;;;0.30;99.90;;;;;;5017178;28;20898;-55
2021/12/12 05:55:44;;;;;;;6.80;5.60;;;0.40;99.90;;;;;;5014125;28;20568;-54
2021/12/12 05:58:14;;;;;;;8.50;6.37;;;0.30;99.90;;;;;;5016848;28;20532;-55
2021/12/12 06:00:45;;;;;;;7.73;6.93;;;0.40;99.90;;;;;;5013595;28;20538;-55
2021/12/12 06:03:14;;;;;;;9.00;7.00;;;0.40;99.90;;;;;;5012486;28;20546;-55
2021/12/12 06:05:41;;;;;;;8.97;7.17;;;0.40;99.90;;;;;;5019525;28;20526;-54
2021/12/12 06:08:09;;;;;;;6.83;6.00;;;0.40;99.90;;;;;;5017604;28;21059;-54
2021/12/12 06:10:40;;;;;;;7.07;6.47;;;0.40;99.90;;;;;;5017751;28;20534;-54
2021/12/12 06:13:12;;;;;;;8.27;7.40;;;0.30;99.90;;;;;;5011571;28;20895;-55
2021/12/12 06:15:40;;;;;;;11.70;8.80;;;0.20;99.90;;;;;;5010614;28;20559;-54
2021/12/12 06:18:08;;;;;;;9.47;8.17;;;0.20;99.90;;;;;;5020664;28;20481;-55
2021/12/12 06:20:35;;;;;;;12.57;9.40;;;0.20;99.90;;;;;;5013452;28;21059;-55
2021/12/12 06:23:03;;;;;;;7.00;6.27;;;0.30;99.90;;;;;;5020432;28;20493;-55
2021/12/12 06:25:30;;;;;;;5.30;4.33;;;0.30;99.90;;;;;;5014662;28;20525;-54
2021/12/12 06:27:59;;;;;;;7.70;5.80;;;0.30;99.90;;;;;;5013087;28;20555;-54
2021/12/12 06:30:26;;;;;;;9.43;8.30;;;0.30;99.90;;;;;;5012659;28;20482;-54
2021/12/12 06:32:53;;;;;;;8.33;7.53;;;0.40;99.90;;;;;;5007769;28;20555;-54
2021/12/12 06:35:21;;;;;;;7.33;6.37;;;0.40;99.90;;;;;;5016149;28;20599;-56
2021/12/12 06:37:49;;;;;;;8.93;7.10;;;0.40;99.90;;;;;;5011709;28;20532;-54
2021/12/12 06:40:21;;;;;;;8.57;7.07;;;0.40;99.90;;;;;;5014149;28;20856;-56
2021/12/12 06:42:49;;;;;;;8.80;5.90;;;0.40;99.90;;;;;;5011999;28;20561;-56
2021/12/12 06:45:18;;;;;;;5.27;4.63;;;0.40;99.90;;;;;;5015100;28;20482;-55
2021/12/12 06:47:46;;;;;;;4.43;3.83;;;0.40;99.90;;;;;;5014779;28;20900;-54
2021/12/12 06:50:13;;;;;;;4.50;4.10;;;0.40;99.90;;;;;;5013950;28;20543;-56
2021/12/12 06:52:41;;;;;;;3.37;3.10;;;0.20;99.90;;;;;;5006076;28;20513;-56
2021/12/12 06:55:11;;;;;;;3.60;3.30;;;-0.30;99.90;;;;;;5003978;28;20592;-56
2021/12/12 06:57:39;;;;;;;4.20;3.80;;;-0.60;99.90;;;;;;5009928;28;20489;-55
2021/12/12 07:00:10;;;;;;;3.43;3.10;;;-0.60;99.90;;;;;;5009574;28;20484;-56
2021/12/12 07:02:42;;;;;;;3.77;3.47;;;-0.40;99.90;;;;;;5010422;28;20560;-55
2021/12/12 07:05:11;;;;;;;6.93;5.90;;;-0.30;99.90;;;;;;5007629;28;20503;-56
2021/12/12 07:07:38;;;;;;;13.33;9.53;;;-0.10;99.90;;;;;;5009844;28;20538;-56
2021/12/12 07:10:08;;;;;;;13.43;8.00;;;0.00;99.90;;;;;;5009360;28;20480;-55
2021/12/12 07:12:39;;;;;;;6.47;5.90;;;0.10;99.90;;;;;;5009253;28;21057;-55
2021/12/12 07:15:10;;;;;;;7.95;7.15;;;0.10;99.90;;;;;;5008614;28;20458;-54
2021/12/12 07:17:38;;;;;;;10.83;8.07;;;-0.30;99.90;;;;;;5010667;28;20260;-54
2021/12/12 07:20:08;;;;;;;6.47;5.87;;;-0.40;99.90;;;;;;5010023;28;20532;-54
2021/12/12 07:22:36;;;;;;;5.70;5.00;;;-0.30;99.90;;;;;;5008030;28;20890;-56
2021/12/12 07:25:07;;;;;;;4.93;4.43;;;-0.10;99.90;;;;;;5009905;28;20525;-56
2021/12/12 07:27:34;;;;;;;5.47;5.00;;;-0.10;99.90;;;;;;5009750;28;20491;-54
2021/12/12 07:30:03;;;;;;;6.57;5.97;;;0.00;99.90;;;;;;5008378;28;20544;-56
2021/12/12 07:32:30;;;;;;;7.40;6.60;;;0.10;99.90;;;;;;5008407;28;20496;-54
2021/12/12 07:35:00;;;;;;;7.07;6.37;;;-0.20;99.90;;;;;;5009858;28;20597;-54
2021/12/12 07:37:29;;;;;;;7.80;7.00;;;-0.60;99.90;;;;;;5009381;28;20541;-55
2021/12/12 07:39:57;;;;;;;9.17;7.03;;;-0.50;99.90;;;;;;5009636;28;20531;-55
2021/12/12 07:42:24;;;;;;;9.30;7.27;;;-0.90;99.90;;;;;;5008707;28;20560;-53
2021/12/12 07:44:53;;;;;;;8.60;7.20;;;-1.30;99.90;;;;;;5009915;28;20907;-54
2021/12/12 07:47:21;;;;;;;9.60;6.90;;;-1.00;99.90;;;;;;5008204;28;20935;-56
2021/12/12 07:49:49;;;;;;;4.13;3.77;;;-0.80;99.90;;;;;;5007700;28;20535;-55
2021/12/12 07:52:20;;;;;;;10.30;8.73;;;-0.70;99.90;;;;;;5010057;28;20571;-53
2021/12/12 07:54:50;;;;;;;7.83;7.10;;;-1.10;99.90;;;;;;5009094;28;20881;-53
2021/12/12 07:57:19;;;;;;;11.07;9.00;;;-1.10;99.90;;;;;;5007067;28;20464;-54
2021/12/12 07:59:46;;;;;;;80.23;45.63;;;-0.90;99.90;;;;;;5008023;28;21095;-54
2021/12/12 08:02:16;;;;;;;183.67;103.93;;;-0.90;99.90;;;;;;5010020;28;20504;-54
2021/12/12 08:04:44;;;;;;;71.37;45.43;;;-0.80;99.90;;;;;;5008919;28;20484;-53
2021/12/12 08:07:14;;;;;;;167.27;112.57;;;-0.70;99.90;;;;;;5007178;28;20526;-54
2021/12/12 08:09:43;;;;;;;23.10;17.27;;;-0.70;99.90;;;;;;5009515;28;20533;-54
2021/12/12 08:12:11;;;;;;;11.53;10.33;;;-1.00;99.90;;;;;;5004347;28;20525;-55
2021/12/12 08:14:38;;;;;;;13.13;11.57;;;-1.50;99.90;;;;;;5007954;28;20524;-54
2021/12/12 08:17:07;;;;;;;6.60;5.70;;;-1.30;99.90;;;;;;5009725;28;20478;-54
2021/12/12 08:19:35;;;;;;;7.13;6.37;;;-1.20;99.90;;;;;;5008419;28;20480;-54
2021/12/12 08:22:06;;;;;;;19.50;17.77;;;-1.10;99.90;;;;;;5008825;28;21012;-53
2021/12/12 08:24:35;;;;;;;13.77;12.57;;;-1.00;99.90;;;;;;4994192;28;20483;-53
2021/12/12 08:27:05;;;;;;;8.83;8.13;;;-0.90;99.90;;;;;;5012099;28;20446;-53
2021/12/12 08:29:33;;;;;;;8.97;8.20;;;-0.80;99.90;;;;;;4998617;28;20506;-53
2021/12/12 08:32:03;;;;;;;6.50;5.87;;;-0.80;99.90;;;;;;5007715;28;20455;-55
2021/12/12 08:34:32;;;;;;;6.80;6.10;;;-0.80;99.90;;;;;;5011690;28;20501;-55
2021/12/12 08:36:59;;;;;;;6.47;5.20;;;-0.80;99.90;;;;;;5010500;28;20486;-54
2021/12/12 08:39:28;;;;;;;5.00;4.40;;;-0.80;99.90;;;;;;5009597;28;20451;-54
2021/12/12 08:41:57;;;;;;;5.80;4.13;;;-1.30;99.90;;;;;;5009366;28;20460;-54
2021/12/12 08:44:27;;;;;;;4.60;3.70;;;-1.80;99.90;;;;;;5007903;28;20486;-53
2021/12/12 08:46:56;;;;;;;2.50;2.33;;;-1.70;99.90;;;;;;5014172;28;20739;-53
2021/12/12 08:49:25;;;;;;;3.00;2.80;;;-1.70;99.90;;;;;;5009732;28;20558;-53
2021/12/12 08:51:55;;;;;;;6.03;4.83;;;-1.60;99.90;;;;;;5014385;28;20490;-54
2021/12/12 08:54:27;;;;;;;16.40;9.67;;;-1.50;99.90;;;;;;5011308;28;20490;-55
2021/12/12 08:57:02;;;;;;;8.83;7.93;;;-1.40;99.90;;;;;;5002890;28;20442;-54
2021/12/12 08:59:34;;;;;;;8.43;7.63;;;-1.30;99.90;;;;;;5008881;28;20448;-54
2021/12/12 09:02:04;;;;;;;7.77;6.30;;;-1.30;99.90;;;;;;5009445;28;20557;-54
2021/12/12 09:04:33;;;;;;;7.37;5.17;;;-1.30;99.90;;;;;;5013479;28;20975;-54
2021/12/12 09:07:04;;;;;;;9.97;6.00;;;-1.30;99.90;;;;;;5009366;28;20521;-54
2021/12/12 09:09:37;;;;;;;7.80;5.87;;;-1.40;99.90;;;;;;5015154;28;20564;-54
2021/12/12 09:12:07;;;;;;;7.90;6.93;;;-1.90;99.90;;;;;;5013365;28;20473;-54
2021/12/12 09:14:39;;;;;;;8.53;5.10;;;-2.30;99.90;;;;;;5012110;28;20544;-53
2021/12/12 09:17:09;;;;;;;6.00;3.60;;;-2.20;99.90;;;;;;5013083;28;21020;-55
2021/12/12 09:19:41;;;;;;;4.47;4.07;;;-2.00;99.90;;;;;;5019905;28;20475;-54
2021/12/12 09:22:15;;;;;;;3.73;3.23;;;-1.80;99.90;;;;;;5016015;28;20483;-54
2021/12/12 09:24:52;;;;;;;4.47;3.63;;;-1.70;99.90;;;;;;5016651;28;20900;-54
2021/12/12 09:27:25;;;;;;;9.90;7.77;;;-1.60;99.90;;;;;;5014448;28;20504;-55
2021/12/12 09:29:58;;;;;;;6.43;5.60;;;-1.50;99.90;;;;;;5015927;28;20481;-54
2021/12/12 09:32:30;;;;;;;3.30;3.00;;;-1.40;99.90;;;;;;5012230;28;21059;-53
2021/12/12 09:35:02;;;;;;;6.00;2.70;;;-1.50;99.90;;;;;;5016053;28;20565;-54
2021/12/12 09:37:35;;;;;;;5.30;2.27;;;-1.40;99.90;;;;;;5012337;28;20491;-53
2021/12/12 09:40:12;;;;;;;4.13;3.43;;;-1.30;99.90;;;;;;5014567;28;20564;-53
2021/12/12 09:42:53;;;;;;;2.80;1.90;;;-1.20;99.90;;;;;;5015604;28;20498;-55
2021/12/12 09:45:48;;;;;;;9.10;6.23;;;-1.10;99.90;;;;;;5013365;28;21006;-54
2021/12/12 09:51:41;;;;;;;2.20;2.07;;;-0.90;99.90;;;;;;4988025;28;20428;-55
2021/12/12 09:54:26;;;;;;;1.63;1.53;;;-1.40;99.90;;;;;;5017334;28;20524;-56
2021/12/12 09:56:59;;;;;;;24.60;12.63;;;-1.90;99.90;;;;;;5017816;28;20580;-55
2021/12/12 09:59:40;;;;;;;13.97;8.40;;;-1.80;99.90;;;;;;5017261;28;20527;-56
2021/12/12 10:02:20;;;;;;;47.27;23.67;;;-1.70;99.90;;;;;;5017222;28;20459;-54
2021/12/12 10:05:03;;;;;;;36.83;24.90;;;-1.50;99.90;;;;;;5015529;28;20605;-54
2021/12/12 10:07:38;;;;;;;27.33;15.80;;;-1.30;99.90;;;;;;5006765;28;20551;-55
2021/12/12 10:10:10;;;;;;;13.00;8.70;;;-1.10;99.90;;;;;;5012557;28;20874;-56
2021/12/12 10:12:41;;;;;;;9.73;6.77;;;-1.00;99.90;;;;;;5020461;28;20505;-55
2021/12/12 10:15:12;;;;;;;9.37;8.37;;;-1.10;99.90;;;;;;5015279;28;20561;-55
2021/12/12 10:17:45;;;;;;;9.40;8.20;;;-1.20;99.90;;;;;;5011483;28;20465;-55
2021/12/12 10:20:18;;;;;;;3.00;2.13;;;-1.10;99.90;;;;;;5014192;28;20541;-56
2021/12/12 10:22:55;;;;;;;2.63;2.37;;;-2.00;99.90;;;;;;5018435;28;21272;-54
2021/12/12 10:25:27;;;;;;;2.40;1.60;;;-1.90;99.90;;;;;;5017943;28;20448;-54
2021/12/12 10:28:01;;;;;;;3.97;2.37;;;-1.80;99.90;;;;;;5019838;28;20889;-56
2021/12/12 10:30:31;;;;;;;3.40;3.03;;;-1.50;99.90;;;;;;5016491;28;20540;-53
2021/12/12 10:33:07;;;;;;;2.47;2.20;;;-1.20;99.90;;;;;;5021926;28;20546;-55
2021/12/12 10:35:42;;;;;;;6.87;5.80;;;-1.00;99.90;;;;;;5018346;28;20563;-54
2021/12/12 10:38:14;;;;;;;5.70;5.10;;;-0.80;99.90;;;;;;5018758;28;20545;-55
2021/12/12 10:40:49;;;;;;;5.43;4.20;;;-0.60;99.90;;;;;;5020069;28;20477;-55
2021/12/12 10:43:22;;;;;;;7.33;4.33;;;-0.50;99.90;;;;;;5021008;28;20537;-54
2021/12/12 10:45:56;;;;;;;5.43;4.50;;;-0.40;99.90;;;;;;5019129;28;20452;-55
2021/12/12 10:48:31;;;;;;;5.13;4.13;;;-0.40;99.90;;;;;;5017195;28;20544;-55
2021/12/12 10:51:05;;;;;;;3.13;2.57;;;-0.30;99.90;;;;;;5012862;28;20493;-55
2021/12/12 10:53:37;;;;;;;2.33;2.07;;;-0.20;99.90;;;;;;5018275;28;21034;-54
2021/12/12 10:56:09;;;;;;;1.97;1.83;;;-0.10;99.90;;;;;;5019438;28;20491;-55
2021/12/12 10:58:42;;;;;;;2.70;2.07;;;0.10;99.90;;;;;;5014360;28;20552;-55
2021/12/12 11:01:11;;;;;;;1.90;1.80;;;0.20;99.90;;;;;;5009862;28;20467;-55
2021/12/12 11:03:45;;;;;;;1.87;1.70;;;0.20;99.90;;;;;;5009332;28;20516;-55
2021/12/12 11:06:16;;;;;;;1.60;1.50;;;0.20;99.90;;;;;;5010671;28;20869;-56
2021/12/12 11:08:51;;;;;;;1.90;1.70;;;0.20;99.90;;;;;;5010186;28;20455;-55
2021/12/12 11:11:22;;;;;;;2.13;1.93;;;0.30;99.90;;;;;;5007929;28;20543;-56
2021/12/12 11:13:52;;;;;;;1.93;1.77;;;0.30;99.90;;;;;;5013866;28;21006;-54
2021/12/12 11:16:22;;;;;;;2.70;2.20;;;0.40;99.90;;;;;;5007502;28;20598;-55
2021/12/12 11:18:57;;;;;;;2.20;2.00;;;0.30;99.90;;;;;;5012588;28;20931;-55
2021/12/12 11:21:28;;;;;;;2.23;2.03;;;0.30;99.90;;;;;;5007729;28;20539;-56
2021/12/12 11:23:59;;;;;;;3.37;2.90;;;0.30;99.90;;;;;;5009231;28;20895;-54
2021/12/12 11:26:37;;;;;;;3.33;2.60;;;0.40;99.90;;;;;;5010694;28;20528;-53
2021/12/12 11:29:07;;;;;;;3.10;2.80;;;0.40;99.90;;;;;;5007629;28;20432;-55
2021/12/12 11:31:42;;;;;;;2.63;2.43;;;0.40;99.90;;;;;;5013281;28;20540;-55
2021/12/12 11:34:11;;;;;;;3.47;2.80;;;0.50;99.90;;;;;;5008801;28;20532;-55
2021/12/12 11:36:51;;;;;;;4.27;3.47;;;0.50;99.90;;;;;;5008742;28;20565;-55
2021/12/12 11:39:32;;;;;;;4.70;3.70;;;0.50;99.90;;;;;;5014128;28;20852;-56
2021/12/12 11:42:03;;;;;;;5.00;4.20;;;0.20;99.90;;;;;;5012762;28;20497;-55
2021/12/12 11:44:34;;;;;;;4.87;4.47;;;0.40;99.90;;;;;;5011335;28;20527;-55
2021/12/12 11:47:09;;;;;;;5.07;4.60;;;0.40;99.90;;;;;;5007564;28;20521;-56
2021/12/12 11:49:50;;;;;;;5.67;5.07;;;0.50;99.90;;;;;;5010944;28;20448;-55
2021/12/12 11:52:29;;;;;;;4.77;4.30;;;0.60;99.90;;;;;;5008027;28;20556;-56
2021/12/12 11:55:01;;;;;;;4.17;3.80;;;0.70;99.90;;;;;;5008910;28;20542;-55
2021/12/12 11:57:32;;;;;;;5.63;4.47;;;0.80;99.90;;;;;;5007154;28;20569;-54
2021/12/12 12:00:07;;;;;;;6.83;6.07;;;0.80;99.90;;;;;;5007502;28;20481;-54
2021/12/12 12:02:36;;;;;;;5.30;4.80;;;0.80;99.90;;;;;;5010640;28;20541;-55
2021/12/12 12:05:23;;;;;;;4.60;3.60;;;0.80;99.90;;;;;;5007724;28;20617;-55
2021/12/12 12:07:58;;;;;;;4.17;3.60;;;0.80;99.90;;;;;;5006141;28;20450;-56
2021/12/12 12:10:38;;;;;;;4.10;3.53;;;0.80;99.90;;;;;;5000952;28;20478;-57
2021/12/12 12:13:21;;;;;;;4.67;4.00;;;0.70;99.90;;;;;;5003212;28;20556;-56
2021/12/12 12:15:53;;;;;;;6.27;5.00;;;0.80;99.90;;;;;;5004781;28;20577;-55
2021/12/12 12:18:35;;;;;;;6.43;5.80;;;0.60;99.90;;;;;;4997142;28;20582;-57
2021/12/12 12:21:10;;;;;;;8.47;6.37;;;0.40;99.90;;;;;;5009057;28;20528;-55
2021/12/12 12:24:10;;;;;;;7.33;6.53;;;0.50;99.90;;;;;;4998755;28;20463;-56
2021/12/12 12:26:56;;;;;;;5.87;5.13;;;0.70;99.90;;;;;;4992981;28;20478;-55
2021/12/12 12:30:07;;;;;;;4.40;4.00;;;0.80;99.90;;;;;;5004296;28;20462;-56
2021/12/12 12:33:10;;;;;;;3.83;2.63;;;1.00;99.90;;;;;;5007140;28;20463;-56
2021/12/12 12:36:10;;;;;;;2.70;2.13;;;1.10;99.90;;;;;;5024431;23;20591;-80
2021/12/12 12:39:17;;;;;;;2.23;2.03;;;1.20;99.90;;;;;;5029316;28;20453;-80
2021/12/12 12:42:21;;;;;;;2.47;2.03;;;1.20;99.90;;;;;;5030975;28;20434;-80
2021/12/12 12:45:24;;;;;;;2.70;2.40;;;1.20;99.90;;;;;;5015630;28;20447;-81
2021/12/12 12:48:40;;;;;;;1.63;1.53;;;1.30;99.90;;;;;;5005971;28;20994;-79
2021/12/12 12:51:24;;;;;;;3.53;2.60;;;1.30;99.90;;;;;;4936911;29;20491;-80
2021/12/12 12:54:12;;;;;;;2.10;1.90;;;1.30;99.90;;;;;;4999207;28;20529;-80
2021/12/12 12:57:02;;;;;;;2.43;2.23;;;1.40;99.90;;;;;;5019483;28;20492;-80
2021/12/12 12:59:52;;;;;;;2.37;2.20;;;1.40;99.90;;;;;;5006998;28;20457;-80
2021/12/12 13:02:22;;;;;;;2.80;2.60;;;1.40;99.90;;;;;;5013806;28;20506;-79
2021/12/12 13:05:31;;;;;;;3.10;2.87;;;1.40;99.90;;;;;;5004170;28;20462;-81
2021/12/12 13:09:00;;;;;;;2.60;2.40;;;1.40;99.90;;;;;;5014589;28;21050;-81
2021/12/12 13:11:36;;;;;;;3.10;2.80;;;1.40;99.90;;;;;;5009664;28;20447;-80
2021/12/12 13:14:20;;;;;;;2.97;2.67;;;1.40;99.90;;;;;;5012148;28;20472;-80
2021/12/12 13:16:53;;;;;;;3.17;2.87;;;1.50;99.90;;;;;;5013807;28;20478;-80
2021/12/12 13:19:31;;;;;;;3.53;3.23;;;1.50;99.90;;;;;;5010327;28;20448;-81
2021/12/12 13:22:06;;;;;;;5.47;4.17;;;1.50;99.90;;;;;;5008896;28;20484;-81
2021/12/12 13:24:47;;;;;;;5.43;3.50;;;1.30;99.90;;;;;;5012124;28;20509;-81
2021/12/12 13:27:28;;;;;;;4.90;4.37;;;1.30;99.90;;;;;;5002182;28;20479;-80
2021/12/12 13:30:06;;;;;;;5.73;4.87;;;1.30;99.90;;;;;;5011538;28;20451;-80
2021/12/12 13:32:45;;;;;;;6.70;4.87;;;1.30;99.90;;;;;;5013433;28;20451;-80